Time;durP1;ratioP1;P1;durP2;ratioP2;P2;SDS_P1;SDS_P2;PMS_P1;PMS_P2;Temp;Humidity;BMP_temperature;BMP_pressure;BME280_temperature;BME280_humidity;BME280_pressure;Samples;Min_cycle;Max_cycle;Signal;HPM_P1;HPM_P2
2022/12/28 00:00:48;;;;;;;6.32;2.35;;;;;;;2.54;59.31;101062.22;4304273;33;20165;-87
2022/12/28 00:03:13;;;;;;;5.45;2.30;;;;;;;2.47;59.31;101061.22;4321255;33;20111;-87
2022/12/28 00:05:39;;;;;;;9.77;2.70;;;;;;;2.43;59.32;101056.00;4328424;33;20176;-87
2022/12/28 00:08:04;;;;;;;7.22;2.55;;;;;;;2.63;59.32;101057.28;4333542;33;20147;-87
2022/12/28 00:10:30;;;;;;;6.07;2.90;;;;;;;2.75;59.33;101056.66;4321463;33;20154;-87
2022/12/28 00:12:56;;;;;;;4.95;2.53;;;;;;;2.73;59.33;101068.63;4333189;33;20178;-87
2022/12/28 00:15:21;;;;;;;9.82;2.45;;;;;;;2.32;59.31;101068.59;4317025;33;20454;-87
2022/12/28 00:17:47;;;;;;;11.38;2.62;;;;;;;2.51;59.32;101069.84;4319088;33;20176;-86
2022/12/28 00:20:12;;;;;;;8.15;2.97;;;;;;;2.41;59.30;101057.66;4316376;33;20166;-86
2022/12/28 00:22:37;;;;;;;10.70;2.58;;;;;;;2.09;59.29;101067.19;4311665;33;20504;-87
2022/12/28 00:25:03;;;;;;;5.75;2.42;;;;;;;1.88;59.28;101062.41;4311520;33;20183;-86
2022/12/28 00:27:29;;;;;;;5.45;2.60;;;;;;;1.98;59.28;101073.78;4323649;33;20373;-86
2022/12/28 00:29:54;;;;;;;5.53;2.50;;;;;;;1.97;59.28;101069.47;4316639;33;20481;-87
2022/12/28 00:32:20;;;;;;;5.68;2.78;;;;;;;2.08;59.29;101068.88;4335290;33;20151;-87
2022/12/28 00:34:45;;;;;;;8.50;2.83;;;;;;;1.91;59.28;101066.78;4311495;33;20546;-87
2022/12/28 00:37:11;;;;;;;7.45;3.62;;;;;;;1.89;59.27;101066.72;4313606;33;20118;-87
2022/12/28 00:39:36;;;;;;;6.43;2.80;;;;;;;2.12;59.29;101063.00;4316977;33;20177;-86
2022/12/28 00:42:02;;;;;;;9.82;2.50;;;;;;;2.04;59.29;101067.09;4330944;33;20497;-87
2022/12/28 00:44:27;;;;;;;7.07;2.83;;;;;;;1.93;59.29;101067.69;4315110;33;21991;-87
2022/12/28 00:46:52;;;;;;;11.12;2.58;;;;;;;1.97;59.28;101075.50;4301369;33;20152;-87
2022/12/28 00:49:18;;;;;;;6.70;2.22;;;;;;;1.96;59.28;101076.31;4323272;33;20368;-86
2022/12/28 00:51:43;;;;;;;5.47;2.70;;;;;;;1.85;59.28;101073.47;4313646;33;20410;-87
2022/12/28 00:54:09;;;;;;;6.18;2.30;;;;;;;2.17;59.30;101075.09;4304739;33;20096;-86
2022/12/28 00:56:34;;;;;;;7.43;2.70;;;;;;;2.16;59.30;101074.22;4318477;33;20114;-86
2022/12/28 00:59:00;;;;;;;5.12;2.72;;;;;;;2.06;59.29;101085.09;4327706;33;20169;-86
2022/12/28 01:01:26;;;;;;;5.53;2.05;;;;;;;2.11;59.29;101084.37;4321612;33;20150;-86
2022/12/28 01:03:54;;;;;;;9.15;2.55;;;;;;;2.01;59.29;101090.13;4326307;33;20096;-86
2022/12/28 01:06:20;;;;;;;5.82;2.72;;;;;;;1.85;59.28;101088.88;4315579;33;20532;-86
2022/12/28 01:08:45;;;;;;;5.95;2.45;;;;;;;1.74;59.27;101094.59;4320812;33;20146;-86
2022/12/28 01:11:20;;;;;;;7.62;2.87;;;;;;;1.79;59.28;101100.72;4308428;33;20420;-86
2022/12/28 01:13:46;;;;;;;7.03;1.87;;;;;;;1.89;59.28;101096.66;4340746;33;20100;-86
2022/12/28 01:16:16;;;;;;;4.95;2.35;;;;;;;1.83;59.28;101095.69;4322836;33;20129;-86
2022/12/28 01:18:42;;;;;;;7.82;2.58;;;;;;;1.77;59.28;101099.78;4302771;33;20130;-86
2022/12/28 01:21:18;;;;;;;4.12;2.15;;;;;;;1.70;59.28;101101.34;4299672;33;20158;-86
2022/12/28 01:23:44;;;;;;;4.32;2.05;;;;;;;1.62;59.26;101105.41;4314863;33;20174;-87
2022/12/28 01:26:10;;;;;;;7.30;2.55;;;;;;;1.52;59.26;101095.75;4327670;33;20124;-86
2022/12/28 01:28:35;;;;;;;6.55;3.03;;;;;;;1.56;59.27;101101.81;4317946;33;20163;-86
2022/12/28 01:31:08;;;;;;;4.68;2.17;;;;;;;1.69;59.26;101107.31;4294107;33;20151;-86
2022/12/28 01:33:34;;;;;;;5.10;2.22;;;;;;;1.54;59.26;101109.47;4318169;33;20092;-86
2022/12/28 01:36:05;;;;;;;7.35;2.60;;;;;;;1.63;59.27;101104.56;4305456;33;20514;-87
2022/12/28 01:38:31;;;;;;;6.87;2.75;;;;;;;1.62;59.26;101099.41;4320033;33;20472;-86
2022/12/28 01:40:56;;;;;;;5.68;2.55;;;;;;;1.56;59.26;101102.69;4332092;33;20236;-86
2022/12/28 01:43:35;;;;;;;7.22;3.20;;;;;;;1.63;59.27;101102.00;4311517;33;20155;-86
2022/12/28 01:46:01;;;;;;;8.50;3.30;;;;;;;1.39;59.25;101094.53;4293924;33;20089;-86
2022/12/28 01:48:26;;;;;;;5.75;2.25;;;;;;;1.46;59.25;101093.88;4326470;33;20139;-85
2022/12/28 01:50:52;;;;;;;9.75;2.62;;;;;;;1.52;59.26;101094.03;4317671;33;20200;-86
2022/12/28 01:53:17;;;;;;;7.75;2.90;;;;;;;1.63;59.27;101084.03;4304516;33;20187;-86
2022/12/28 01:55:43;;;;;;;6.15;2.35;;;;;;;1.57;59.26;101083.88;4293958;33;20111;-86
2022/12/28 01:58:11;;;;;;;11.35;2.80;;;;;;;1.63;59.27;101081.47;4293631;33;20144;-86
2022/12/28 02:00:37;;;;;;;5.55;3.10;;;;;;;1.74;59.28;101076.63;4306059;33;20159;-86
2022/12/28 02:03:08;;;;;;;7.57;2.62;;;;;;;1.70;59.27;101069.69;4292307;33;20179;-86
2022/12/28 02:05:37;;;;;;;6.10;2.87;;;;;;;1.71;59.27;101068.84;4305848;33;20235;-86
2022/12/28 02:08:16;;;;;;;10.30;3.17;;;;;;;1.77;59.28;101062.16;4317742;33;20100;-86
2022/12/28 02:10:42;;;;;;;7.07;2.80;;;;;;;1.80;59.28;101066.50;4305954;33;20120;-86
2022/12/28 02:13:07;;;;;;;4.82;2.72;;;;;;;1.88;59.28;101064.09;4317910;33;20579;-86
2022/12/28 02:15:33;;;;;;;6.25;2.65;;;;;;;1.74;59.27;101058.66;4318128;33;20494;-86
2022/12/28 02:17:58;;;;;;;6.28;2.72;;;;;;;1.82;59.27;101049.44;4305620;33;20136;-87
2022/12/28 02:20:26;;;;;;;8.60;2.95;;;;;;;1.71;59.27;101054.31;4305497;33;20369;-86
2022/12/28 02:23:15;;;;;;;4.80;2.67;;;;;;;1.61;59.26;101054.03;4306512;33;20088;-86
2022/12/28 02:25:47;;;;;;;4.60;2.65;;;;;;;1.72;59.27;101057.75;4309074;33;20096;-86
2022/12/28 02:28:31;;;;;;;10.68;2.97;;;;;;;1.77;59.28;101061.28;4320009;33;20505;-86
2022/12/28 02:31:20;;;;;;;6.53;3.45;;;;;;;1.93;59.28;101063.41;4333436;33;20096;-86
2022/12/28 02:34:03;;;;;;;7.97;3.10;;;;;;;1.84;59.28;101064.03;4332252;33;20087;-87
2022/12/28 02:36:33;;;;;;;5.85;2.70;;;;;;;1.71;59.27;101064.59;4332145;33;20135;-86
2022/12/28 02:39:04;;;;;;;10.95;3.05;;;;;;;1.67;59.27;101060.22;4298972;33;20166;-86
2022/12/28 02:41:29;;;;;;;6.78;2.58;;;;;;;1.81;59.28;101063.09;4301464;33;20176;-86
2022/12/28 02:43:55;;;;;;;6.10;3.00;;;;;;;2.00;59.29;101059.28;4307183;33;20088;-86
2022/12/28 02:52:40;;;;;;;5.32;2.85;;;;;;;1.68;59.26;101055.94;4321878;33;20248;-87
2022/12/28 02:58:57;;;;;;;6.82;2.42;;;;;;;1.72;59.27;101056.06;4335364;33;20162;-87
2022/12/28 03:01:30;;;;;;;5.05;2.67;;;;;;;1.80;59.28;101059.66;4321636;33;20111;-86
2022/12/28 03:04:17;;;;;;;7.18;2.70;;;;;;;1.74;59.27;101054.37;4334108;33;20112;-86
2022/12/28 03:10:17;;;;;;;5.53;2.78;;;;;;;1.68;59.27;101058.50;4316618;33;20159;-86
2022/12/28 03:12:49;;;;;;;8.38;2.53;;;;;;;1.75;59.27;101055.25;4309736;33;20079;-86
2022/12/28 03:15:28;;;;;;;5.93;3.03;;;;;;;1.65;59.27;101055.84;4325126;33;20219;-86
2022/12/28 03:31:36;;;;;;;4.72;2.75;;;;;;;1.29;59.25;101033.56;4319906;33;20085;-87
2022/12/28 03:34:07;;;;;;;6.72;2.78;;;;;;;1.27;59.25;101031.78;4320777;33;25946;-86
2022/12/28 03:36:56;;;;;;;7.53;3.20;;;;;;;1.19;59.24;101032.47;4321912;33;20159;-86
2022/12/28 03:39:39;;;;;;;6.07;2.80;;;;;;;1.14;59.24;101026.31;4333326;33;20096;-86
2022/12/28 03:45:34;;;;;;;7.15;3.28;;;;;;;1.03;59.23;101024.31;4323534;33;20120;-86
2022/12/28 03:48:00;;;;;;;;;;;;;;;0.92;59.23;101021.44;4333925;33;20162;-86
2022/12/28 03:50:25;;;;;;;4.80;3.03;;;;;;;0.99;59.23;101018.25;4343210;33;19991;-87
2022/12/28 03:52:51;;;;;;;7.47;3.65;;;;;;;1.17;59.24;101012.72;4296912;33;20115;-87
2022/12/28 03:55:16;;;;;;;18.00;8.07;;;;;;;1.03;59.24;101009.81;4321811;33;20096;-87
2022/12/28 03:57:42;;;;;;;15.38;8.48;;;;;;;0.98;59.23;101005.38;4297537;33;20470;-88
2022/12/28 04:00:09;;;;;;;15.02;7.87;;;;;;;0.96;59.22;100999.34;4321728;33;20504;-87
2022/12/28 04:02:35;;;;;;;16.02;6.90;;;;;;;0.93;59.22;100995.84;4310028;33;20114;-87
2022/12/28 04:05:00;;;;;;;9.73;4.62;;;;;;;1.04;59.24;100998.72;4299542;33;20198;-87
2022/12/28 04:07:26;;;;;;;10.20;4.18;;;;;;;0.81;59.21;100998.09;4315241;33;20103;-87
2022/12/28 04:09:51;;;;;;;7.60;3.12;;;;;;;0.93;59.22;100995.84;4309389;33;20140;-87
2022/12/28 04:12:16;;;;;;;5.72;2.53;;;;;;;0.86;59.22;100985.41;4333734;33;20088;-87
2022/12/28 04:14:42;;;;;;;6.07;2.97;;;;;;;0.89;59.23;100985.47;4309271;33;20168;-86
2022/12/28 04:17:07;;;;;;;7.65;3.10;;;;;;;0.79;59.21;100984.38;4321430;33;20190;-86
2022/12/28 04:19:33;;;;;;;5.57;2.62;;;;;;;0.71;59.21;100984.97;4322591;33;20579;-86
2022/12/28 04:21:58;;;;;;;5.70;2.67;;;;;;;0.65;59.21;100979.69;4303092;33;20507;-86
2022/12/28 04:24:23;;;;;;;7.80;3.25;;;;;;;0.75;59.22;100984.25;4333112;33;21759;-86
2022/12/28 04:26:49;;;;;;;5.50;2.58;;;;;;;0.72;59.21;100979.94;4334702;33;20095;-86
2022/12/28 04:29:14;;;;;;;5.55;2.75;;;;;;;0.82;59.22;100978.47;4309042;33;20113;-86
2022/12/28 04:31:40;;;;;;;6.32;2.80;;;;;;;0.77;59.22;100980.91;4297128;33;20107;-87
2022/12/28 04:34:06;;;;;;;6.35;2.80;;;;;;;0.83;59.22;100980.19;4309183;33;20112;-86
2022/12/28 04:36:31;;;;;;;4.70;2.72;;;;;;;0.96;59.23;100969.47;4321186;33;20381;-86
2022/12/28 04:38:57;;;;;;;8.50;3.10;;;;;;;0.76;59.22;100981.75;4311070;33;20138;-86
2022/12/28 04:41:23;;;;;;;7.05;2.50;;;;;;;0.85;59.22;100964.03;4327977;33;20096;-87
2022/12/28 04:43:48;;;;;;;5.28;2.47;;;;;;;0.96;59.22;100971.16;4322999;33;20464;-86
2022/12/28 04:46:14;;;;;;;6.87;2.62;;;;;;;1.01;59.23;100973.00;4303482;33;20099;-87
2022/12/28 04:48:40;;;;;;;4.93;2.42;;;;;;;1.13;59.24;100990.38;4320850;33;20110;-87
2022/12/28 04:51:07;;;;;;;9.35;3.20;;;;;;;1.05;59.24;100981.63;4297167;33;20385;-87
2022/12/28 04:53:38;;;;;;;5.20;2.22;;;;;;;1.13;59.24;100977.56;4296820;33;20095;-87
2022/12/28 04:56:04;;;;;;;6.80;3.22;;;;;;;1.07;59.23;100979.97;4321227;33;20187;-87
2022/12/28 04:58:30;;;;;;;8.55;3.30;;;;;;;0.91;59.23;100984.69;4334034;33;20124;-87
2022/12/28 05:01:02;;;;;;;6.93;2.70;;;;;;;0.95;59.22;100979.66;4327803;33;20107;-86
2022/12/28 05:03:27;;;;;;;5.85;2.40;;;;;;;0.73;59.21;100997.03;4321243;33;20159;-87
2022/12/28 05:05:53;;;;;;;4.97;2.70;;;;;;;0.69;59.21;100991.75;4308867;33;20418;-86
2022/12/28 05:08:18;;;;;;;5.80;2.47;;;;;;;0.87;59.22;100997.41;4300314;33;21908;-87
2022/12/28 05:10:43;;;;;;;7.40;3.10;;;;;;;0.80;59.21;100993.81;4300048;33;20185;-87
2022/12/28 05:13:09;;;;;;;7.28;3.12;;;;;;;0.85;59.22;100979.41;4306139;33;20200;-86
2022/12/28 05:15:34;;;;;;;7.28;2.78;;;;;;;0.96;59.23;100982.28;4309099;33;20107;-87
2022/12/28 05:18:00;;;;;;;6.40;2.78;;;;;;;1.04;59.24;100991.03;4305403;33;20127;-86
2022/12/28 05:20:25;;;;;;;8.00;3.60;;;;;;;0.87;59.22;100984.56;4299496;33;20175;-87
2022/12/28 05:22:50;;;;;;;5.03;2.70;;;;;;;0.97;59.23;100983.16;4314261;33;20162;-87
2022/12/28 05:25:16;;;;;;;5.22;3.08;;;;;;;0.94;59.22;100996.72;4315411;33;20171;-86
2022/12/28 05:27:41;;;;;;;6.03;3.08;;;;;;;0.90;59.23;100997.47;4320531;33;20127;-87
2022/12/28 05:30:07;;;;;;;7.78;3.00;;;;;;;0.87;59.22;100993.13;4327277;33;20151;-86
2022/12/28 05:32:32;;;;;;;7.10;2.97;;;;;;;0.80;59.21;100992.94;4299221;33;20189;-86
2022/12/28 05:34:58;;;;;;;6.50;2.60;;;;;;;0.73;59.21;100993.59;4314609;33;20187;-86
2022/12/28 05:37:23;;;;;;;6.70;2.83;;;;;;;0.70;59.21;100990.94;4300417;33;20135;-87
2022/12/28 05:39:49;;;;;;;5.28;2.83;;;;;;;0.70;59.21;100991.78;4314585;33;20104;-87
2022/12/28 05:42:14;;;;;;;6.65;2.70;;;;;;;0.76;59.22;100992.00;4323212;33;20432;-87
2022/12/28 05:44:39;;;;;;;6.18;2.75;;;;;;;0.60;59.21;100992.38;4315393;33;20146;-86
2022/12/28 05:47:05;;;;;;;8.52;3.10;;;;;;;0.73;59.21;100989.34;4333092;33;20103;-86
2022/12/28 05:49:30;;;;;;;7.07;3.40;;;;;;;0.83;59.22;100988.75;4296471;33;20180;-87
2022/12/28 05:51:56;;;;;;;10.77;4.12;;;;;;;0.78;59.22;100998.03;4322734;33;20139;-87
2022/12/28 05:54:21;;;;;;;9.38;4.25;;;;;;;0.67;59.21;100978.91;4317785;33;24941;-87
2022/12/28 05:56:49;;;;;;;9.30;4.07;;;;;;;0.75;59.22;100974.88;4332945;33;20169;-87
2022/12/28 05:59:14;;;;;;;10.65;3.12;;;;;;;0.78;59.22;100982.66;4296956;33;20107;-87
2022/12/28 06:01:40;;;;;;;6.18;2.78;;;;;;;0.61;59.21;100996.69;4320863;33;20123;-86
2022/12/28 06:04:07;;;;;;;6.03;3.17;;;;;;;0.68;59.21;101000.28;4308273;33;20111;-86
2022/12/28 06:06:33;;;;;;;5.45;2.75;;;;;;;0.59;59.21;100998.34;4320880;33;20087;-87
2022/12/28 06:09:00;;;;;;;11.10;2.47;;;;;;;0.85;59.22;100994.78;4298851;33;20083;-87
2022/12/28 06:11:26;;;;;;;5.45;2.30;;;;;;;0.62;59.21;100993.28;4319704;33;20100;-87
2022/12/28 06:13:51;;;;;;;4.93;2.58;;;;;;;0.69;59.21;100996.87;4321092;33;20134;-87
2022/12/28 06:16:20;;;;;;;3.85;2.53;;;;;;;0.82;59.22;100992.16;4332162;33;20111;-87
2022/12/28 06:18:45;;;;;;;5.72;2.92;;;;;;;0.64;59.21;100985.66;4342792;33;20087;-86
2022/12/28 06:21:15;;;;;;;9.25;3.15;;;;;;;0.71;59.21;100996.13;4310526;33;20430;-86
2022/12/28 06:23:41;;;;;;;7.07;3.37;;;;;;;0.67;59.21;100999.41;4315069;33;20447;-87
2022/12/28 06:26:07;;;;;;;5.53;2.75;;;;;;;0.58;59.20;100996.59;4316708;33;20095;-87
2022/12/28 06:28:32;;;;;;;5.87;2.65;;;;;;;0.47;59.20;100995.41;4315009;33;20123;-87
2022/12/28 06:31:02;;;;;;;6.18;2.72;;;;;;;0.48;59.20;100992.91;4322151;33;20135;-86
2022/12/28 06:33:28;;;;;;;;;;;;;;;0.34;59.19;100998.47;4310133;33;20245;-87
2022/12/28 06:35:53;;;;;;;4.32;2.83;;;;;;;0.57;59.20;100992.31;4322211;33;19995;-86
2022/12/28 06:38:18;;;;;;;8.80;3.15;;;;;;;0.60;59.21;100997.50;4321595;33;23182;-86
2022/12/28 06:40:44;;;;;;;6.15;2.35;;;;;;;0.39;59.20;100997.75;4323759;33;20134;-86
2022/12/28 06:43:09;;;;;;;5.87;2.78;;;;;;;0.48;59.19;101002.31;4315210;33;21094;-86
2022/12/28 06:45:35;;;;;;;7.20;3.42;;;;;;;0.47;59.20;100997.97;4309579;33;20166;-86
2022/12/28 06:48:00;;;;;;;9.88;3.35;;;;;;;0.45;59.20;101005.63;4297637;33;20139;-86
2022/12/28 06:50:25;;;;;;;9.88;3.17;;;;;;;0.55;59.20;101009.31;4297818;33;20164;-87
2022/12/28 06:52:51;;;;;;;6.12;3.10;;;;;;;0.53;59.21;101005.84;4333733;33;20418;-86
2022/12/28 06:55:16;;;;;;;6.62;3.37;;;;;;;0.56;59.20;101011.94;4309923;33;20175;-86
2022/12/28 06:57:42;;;;;;;11.73;4.50;;;;;;;0.48;59.20;101012.53;4300018;33;20162;-87
2022/12/28 07:00:08;;;;;;;8.65;3.92;;;;;;;0.33;59.19;101012.97;4299063;33;20160;-86
2022/12/28 07:02:33;;;;;;;5.85;3.47;;;;;;;0.50;59.20;101016.03;4322005;33;20151;-87
2022/12/28 07:04:59;;;;;;;9.57;3.80;;;;;;;0.60;59.21;101012.87;4323995;33;20149;-87
2022/12/28 07:07:24;;;;;;;8.00;3.85;;;;;;;0.63;59.21;101002.72;4335850;33;20151;-87
2022/12/28 07:09:49;;;;;;;6.20;3.15;;;;;;;0.89;59.21;101000.88;4310829;33;20133;-86
2022/12/28 07:12:15;;;;;;;7.62;3.53;;;;;;;1.06;59.23;100998.75;4309849;33;20135;-86
2022/12/28 07:14:40;;;;;;;10.00;3.90;;;;;;;0.95;59.22;101011.31;4297871;33;20375;-86
2022/12/28 07:17:06;;;;;;;7.37;3.37;;;;;;;0.81;59.21;101005.78;4322188;33;20175;-87
2022/12/28 07:19:31;;;;;;;9.60;4.37;;;;;;;0.91;59.23;101006.91;4306672;33;20163;-86
2022/12/28 07:21:56;;;;;;;8.30;3.42;;;;;;;0.95;59.22;101006.19;4306209;33;20150;-86
2022/12/28 07:24:22;;;;;;;7.97;3.40;;;;;;;0.92;59.22;100996.69;4310652;33;20127;-87
2022/12/28 07:26:47;;;;;;;8.43;3.67;;;;;;;1.06;59.23;100991.06;4289245;33;20414;-86
2022/12/28 07:29:13;;;;;;;8.35;3.50;;;;;;;1.09;59.23;100989.44;4310950;33;20130;-87
2022/12/28 07:31:38;;;;;;;9.63;3.67;;;;;;;1.24;59.24;100989.00;4319513;33;20155;-87
2022/12/28 07:34:04;;;;;;;6.80;3.35;;;;;;;1.43;59.25;100980.94;4300113;33;20146;-87
2022/12/28 07:36:30;;;;;;;6.43;3.12;;;;;;;1.58;59.26;100982.09;4297684;33;20203;-87
2022/12/28 07:38:56;;;;;;;9.20;3.17;;;;;;;1.48;59.26;100981.91;4297206;33;20095;-86
2022/12/28 07:41:28;;;;;;;5.30;3.30;;;;;;;1.62;59.26;100981.34;4321758;33;20107;-88
2022/12/28 07:43:54;;;;;;;13.65;3.45;;;;;;;1.71;59.27;100984.16;4309491;33;20102;-87
2022/12/28 07:46:24;;;;;;;5.93;3.10;;;;;;;1.73;59.27;100985.06;4299683;33;20170;-86
2022/12/28 07:48:50;;;;;;;8.15;3.08;;;;;;;1.83;59.28;100990.41;4298590;33;20134;-87
2022/12/28 07:51:31;;;;;;;7.28;3.40;;;;;;;1.89;59.27;100991.38;4305660;33;20190;-87
2022/12/28 07:53:57;;;;;;;6.60;3.03;;;;;;;1.79;59.27;100990.31;4299931;33;20100;-87
2022/12/28 07:56:23;;;;;;;7.05;3.12;;;;;;;2.13;59.29;100989.41;4297457;33;20087;-86
2022/12/28 07:58:49;;;;;;;7.50;3.58;;;;;;;1.96;59.28;100991.59;4321177;33;20187;-86
2022/12/28 08:01:15;;;;;;;10.43;3.35;;;;;;;2.08;59.29;101003.81;4309616;33;20112;-87
2022/12/28 08:03:40;;;;;;;8.80;3.83;;;;;;;1.90;59.28;101011.13;4297165;33;20377;-87
2022/12/28 08:06:09;;;;;;;16.27;3.75;;;;;;;2.03;59.29;101010.56;4321619;33;20134;-87
2022/12/28 08:08:40;;;;;;;7.53;3.60;;;;;;;2.12;59.29;101006.47;4311732;33;20187;-87
2022/12/28 08:11:07;;;;;;;7.65;3.75;;;;;;;2.12;59.29;101000.47;4312630;33;20251;-86
2022/12/28 08:13:33;;;;;;;9.20;3.83;;;;;;;2.29;59.30;101004.28;4309107;33;20122;-87
2022/12/28 08:15:59;;;;;;;7.70;3.33;;;;;;;2.38;59.31;100995.94;4321452;33;20160;-87
2022/12/28 08:18:25;;;;;;;10.25;4.05;;;;;;;2.31;59.30;100988.91;4296926;33;20165;-86
2022/12/28 08:20:50;;;;;;;18.90;7.20;;;;;;;2.37;59.31;100987.34;4296644;33;20107;-87
2022/12/28 08:23:15;;;;;;;18.05;6.97;;;;;;;2.54;59.31;100987.69;4321351;33;20155;-87
2022/12/28 08:25:41;;;;;;;16.17;6.55;;;;;;;2.60;59.32;100984.34;4296832;33;20123;-86
2022/12/28 08:28:06;;;;;;;15.00;5.37;;;;;;;3.00;59.34;100983.44;4308264;33;20147;-87
2022/12/28 08:30:32;;;;;;;11.50;5.25;;;;;;;3.23;59.35;100978.69;4320903;33;20104;-87
2022/12/28 08:32:57;;;;;;;11.63;4.72;;;;;;;3.51;59.37;100965.44;4320838;33;20167;-86
2022/12/28 08:35:22;;;;;;;14.35;5.75;;;;;;;3.75;59.38;100974.38;4308556;33;22757;-87
2022/12/28 08:37:48;;;;;;;49.95;22.75;;;;;;;3.88;59.39;100971.16;4306523;33;20157;-87
2022/12/28 08:40:13;;;;;;;23.27;12.18;;;;;;;3.92;59.40;100976.37;4329479;33;20458;-86
2022/12/28 08:42:39;;;;;;;14.55;7.45;;;;;;;3.98;59.39;100967.88;4326258;33;22989;-87
2022/12/28 08:45:05;;;;;;;14.90;7.75;;;;;;;3.97;59.39;100979.87;4312558;33;20158;-87
2022/12/28 08:47:30;;;;;;;12.57;6.25;;;;;;;4.13;59.41;100978.41;4320641;33;20116;-87
2022/12/28 08:49:55;;;;;;;17.55;8.20;;;;;;;4.11;59.40;100980.09;4320064;33;20494;-87
2022/12/28 08:52:23;;;;;;;16.02;8.25;;;;;;;4.23;59.41;100982.81;4319671;33;21570;-86
2022/12/28 08:54:49;;;;;;;26.30;10.98;;;;;;;4.50;59.42;100973.72;4309011;33;20121;-86
2022/12/28 08:57:14;;;;;;;27.30;12.57;;;;;;;4.40;59.42;100980.47;4308885;33;20107;-87
2022/12/28 08:59:39;;;;;;;25.27;11.25;;;;;;;4.53;59.43;100978.91;4308511;33;20116;-87
2022/12/28 09:02:05;;;;;;;27.08;10.93;;;;;;;4.68;59.44;100976.50;4321050;33;20465;-87
2022/12/28 09:04:30;;;;;;;19.45;8.80;;;;;;;4.85;59.45;100980.16;4308949;33;20110;-87
2022/12/28 09:06:56;;;;;;;20.30;9.20;;;;;;;4.97;59.45;100981.09;4330107;33;20119;-87
2022/12/28 09:09:21;;;;;;;18.08;8.55;;;;;;;5.26;59.48;100971.97;4320647;33;20139;-87
2022/12/28 09:11:47;;;;;;;18.55;7.75;;;;;;;5.45;59.48;100973.84;4308485;33;20183;-87
2022/12/28 09:14:13;;;;;;;16.10;7.78;;;;;;;5.57;59.49;100960.16;4308654;33;20357;-88
2022/12/28 09:16:38;;;;;;;14.50;6.85;;;;;;;5.73;59.49;100955.97;4308653;33;20116;-87
2022/12/28 09:19:05;;;;;;;16.02;6.60;;;;;;;5.97;59.51;100944.97;4320600;33;20108;-87
2022/12/28 09:21:33;;;;;;;13.95;6.25;;;;;;;6.02;59.52;100935.53;4299160;33;20091;-87
2022/12/28 09:23:58;;;;;;;12.07;6.37;;;;;;;6.15;59.52;100929.53;4296752;33;20441;-87
2022/12/28 09:26:25;;;;;;;16.40;6.80;;;;;;;6.33;59.53;100927.03;4320392;33;20142;-87
2022/12/28 09:28:52;;;;;;;18.73;7.20;;;;;;;6.45;59.54;100923.66;4308704;33;20146;-87
2022/12/28 09:31:19;;;;;;;18.08;10.95;;;;;;;6.35;59.54;100925.31;4297771;33;20167;-87
2022/12/28 09:34:00;;;;;;;14.25;8.10;;;;;;;6.32;59.53;100919.28;4307742;33;175673;-87
2022/12/28 09:36:30;;;;;;;19.75;7.03;;;;;;;6.41;59.53;100917.59;4309851;33;20107;-86
2022/12/28 09:38:56;;;;;;;15.77;7.70;;;;;;;6.46;59.54;100917.63;4308430;33;20179;-87
2022/12/28 09:41:33;;;;;;;14.23;8.40;;;;;;;6.44;59.54;100916.75;4320499;33;20096;-88
2022/12/28 09:44:21;;;;;;;14.27;7.32;;;;;;;6.45;59.54;100923.66;4297487;33;20110;-87
2022/12/28 09:46:55;;;;;;;13.62;7.32;;;;;;;6.48;59.54;100918.47;4334103;33;20099;-87
2022/12/28 09:49:24;;;;;;;15.77;7.62;;;;;;;6.59;59.55;100915.91;4333879;33;20134;-87
2022/12/28 09:52:12;;;;;;;14.18;7.72;;;;;;;6.62;59.55;100911.59;4310461;33;20095;-87
2022/12/28 09:54:38;;;;;;;17.75;8.00;;;;;;;6.59;59.55;100910.75;4319274;33;20131;-87
2022/12/28 09:57:03;;;;;;;25.00;8.18;;;;;;;6.76;59.56;100898.72;4320164;33;20119;-87
2022/12/28 09:59:30;;;;;;;15.63;8.00;;;;;;;6.74;59.55;100896.12;4322493;33;20151;-87
2022/12/28 10:01:57;;;;;;;16.95;8.20;;;;;;;6.87;59.56;100894.44;4296400;33;20096;-87
2022/12/28 10:04:23;;;;;;;14.65;7.60;;;;;;;7.02;59.57;100885.81;4300802;33;20383;-87
2022/12/28 10:06:48;;;;;;;23.70;8.63;;;;;;;7.14;59.57;100874.59;4332117;33;20140;-87
2022/12/28 10:09:24;;;;;;;13.85;7.20;;;;;;;7.02;59.56;100875.44;4308712;33;20107;-87
2022/12/28 10:11:49;;;;;;;15.52;7.28;;;;;;;7.10;59.58;100876.34;4296047;33;20117;-87
2022/12/28 10:14:27;;;;;;;15.48;8.10;;;;;;;7.36;59.59;100871.16;4317626;33;20701;-86
2022/12/28 10:16:52;;;;;;;25.27;9.15;;;;;;;7.52;59.59;100866.78;4320182;33;20189;-87
2022/12/28 10:19:21;;;;;;;13.25;7.32;;;;;;;7.61;59.61;100854.69;4310683;33;20123;-88
2022/12/28 10:21:58;;;;;;;13.00;7.18;;;;;;;7.57;59.60;100852.09;4307824;33;20079;-87
2022/12/28 10:24:24;;;;;;;17.73;8.23;;;;;;;7.59;59.60;100856.44;4307724;33;20146;-87
2022/12/28 10:26:49;;;;;;;15.40;7.45;;;;;;;7.90;59.61;100862.38;4304933;33;20118;-87
2022/12/28 10:29:19;;;;;;;19.80;7.28;;;;;;;7.84;59.62;100853.78;4319233;33;20119;-87
2022/12/28 10:31:58;;;;;;;15.07;7.40;;;;;;;8.04;59.62;100856.25;4319712;33;20116;-87
2022/12/28 10:34:24;;;;;;;12.43;5.60;;;;;;;8.08;59.63;100853.69;4319847;33;20155;-87
2022/12/28 10:36:49;;;;;;;10.15;4.37;;;;;;;8.32;59.64;100858.75;4305160;33;20116;-87
2022/12/28 10:39:17;;;;;;;7.93;4.28;;;;;;;8.70;59.66;100856.81;4319483;33;20560;-88
2022/12/28 10:41:44;;;;;;;10.70;4.00;;;;;;;8.92;59.68;100848.00;4286056;33;20088;-87
2022/12/28 10:44:18;;;;;;;7.37;3.90;;;;;;;8.85;59.67;100841.16;4320387;33;20564;-88
2022/12/28 10:46:51;;;;;;;9.10;3.62;;;;;;;9.09;59.68;100845.28;4346297;33;20088;-88
2022/12/28 10:49:17;;;;;;;8.40;3.87;;;;;;;9.20;59.70;100841.69;4309892;33;20130;-87
2022/12/28 10:51:56;;;;;;;7.90;4.20;;;;;;;9.27;59.70;100841.66;4298827;33;20111;-88
2022/12/28 10:54:23;;;;;;;9.63;4.03;;;;;;;9.35;59.70;100855.44;4296906;33;20104;-88
2022/12/28 10:56:49;;;;;;;11.60;5.75;;;;;;;9.43;59.70;100846.69;4295603;33;20154;-87
2022/12/28 10:59:19;;;;;;;10.02;4.70;;;;;;;9.44;59.71;100844.94;4307337;33;20120;-88
2022/12/28 11:01:44;;;;;;;13.45;5.65;;;;;;;9.48;59.70;100847.53;4319785;33;20469;-87
2022/12/28 11:04:21;;;;;;;16.95;6.57;;;;;;;9.22;59.70;100847.75;4319582;33;20183;-88
2022/12/28 11:06:57;;;;;;;13.40;5.50;;;;;;;9.26;59.70;100848.59;4295405;33;20123;-88
2022/12/28 11:09:23;;;;;;;10.15;4.95;;;;;;;9.28;59.70;100846.84;4307058;33;20198;-88
2022/12/28 11:11:51;;;;;;;11.12;4.93;;;;;;;9.55;59.71;100843.13;4310434;33;20801;-87
2022/12/28 11:14:31;;;;;;;10.52;5.30;;;;;;;9.69;59.71;100841.22;4319458;33;20099;-87
2022/12/28 11:16:56;;;;;;;;;;;;;;;9.74;59.72;100836.84;4321988;33;20465;-88
2022/12/28 11:19:22;;;;;;;18.23;6.50;;;;;;;9.61;59.71;100831.78;4321206;33;19998;-87
2022/12/28 11:21:48;;;;;;;12.45;6.60;;;;;;;9.45;59.70;100821.53;4321346;33;20106;-88
2022/12/28 11:24:14;;;;;;;11.55;6.30;;;;;;;9.40;59.70;100819.87;4297926;33;20148;-87
2022/12/28 11:26:42;;;;;;;14.40;6.43;;;;;;;9.24;59.69;100813.97;4301745;33;20108;-88
2022/12/28 11:29:07;;;;;;;14.07;6.00;;;;;;;9.49;59.71;100819.78;4318437;33;20211;-87
2022/12/28 11:31:34;;;;;;;12.15;5.90;;;;;;;9.50;59.71;100814.56;4340501;33;20088;-87
2022/12/28 11:34:03;;;;;;;10.38;5.32;;;;;;;9.62;59.72;100812.72;4321162;33;20088;-87
2022/12/28 11:36:29;;;;;;;9.83;4.80;;;;;;;9.51;59.71;100805.91;4321086;33;20483;-87
2022/12/28 11:38:55;;;;;;;12.55;5.00;;;;;;;9.79;59.73;100795.19;4296762;33;20116;-88
2022/12/28 11:41:23;;;;;;;9.35;4.10;;;;;;;9.68;59.72;100791.84;4310868;33;20086;-87
2022/12/28 11:43:53;;;;;;;7.10;3.50;;;;;;;9.79;59.73;100790.84;4322675;33;20107;-87
2022/12/28 11:46:21;;;;;;;6.87;3.45;;;;;;;9.85;59.72;100789.91;4309236;33;20104;-87
2022/12/28 11:48:59;;;;;;;10.70;4.10;;;;;;;9.66;59.72;100780.59;4320886;33;20112;-88
2022/12/28 11:51:29;;;;;;;6.95;3.40;;;;;;;9.64;59.72;100778.00;4333157;33;20110;-88
2022/12/28 11:54:24;;;;;;;7.35;3.53;;;;;;;9.80;59.73;100774.38;4311694;33;20425;-87
2022/12/28 11:56:49;;;;;;;7.70;3.80;;;;;;;9.83;59.72;100770.84;4321704;33;20111;-87
2022/12/28 11:59:24;;;;;;;8.57;4.37;;;;;;;9.80;59.72;100761.34;4321452;33;20137;-88
2022/12/28 12:01:51;;;;;;;16.58;6.18;;;;;;;9.84;59.73;100751.78;4320900;33;20104;-87
2022/12/28 12:04:18;;;;;;;11.38;4.95;;;;;;;9.80;59.73;100761.34;4314968;33;20119;-88